createdAt,value
2018-07-25T00:00:20.332Z,978.6
2018-07-25T00:01:21.565Z,978.6
2018-07-25T00:02:22.723Z,978.6
2018-07-25T00:03:23.981Z,978.6
2018-07-25T00:04:25.141Z,978.6
2018-07-25T00:05:26.328Z,978.5
2018-07-25T00:06:27.489Z,978.6
2018-07-25T00:07:28.669Z,978.6
2018-07-25T00:08:29.897Z,978.6
2018-07-25T00:09:32.066Z,978.6
2018-07-25T00:10:33.222Z,978.7
2018-07-25T00:11:34.422Z,978.7
2018-07-25T00:12:35.630Z,978.6
2018-07-25T00:13:36.894Z,978.6
2018-07-25T00:14:38.093Z,978.6
2018-07-25T00:15:39.282Z,978.6
2018-07-25T00:17:02.233Z,978.6
2018-07-25T00:18:03.411Z,978.6
2018-07-25T00:19:04.693Z,978.6
2018-07-25T00:20:05.861Z,978.6
2018-07-25T00:21:14.219Z,978.6
2018-07-25T00:22:16.837Z,978.6
2018-07-25T00:23:18.258Z,978.6
2018-07-25T00:24:22.049Z,978.5
2018-07-25T00:25:23.232Z,978.6
2018-07-25T00:26:24.427Z,978.5
2018-07-25T00:27:25.597Z,978.5
2018-07-25T00:28:29.174Z,978.5
2018-07-25T00:29:30.365Z,978.5
2018-07-25T00:30:32.889Z,978.5
2018-07-25T00:31:34.078Z,978.5
2018-07-25T00:32:35.418Z,978.4
2018-07-25T00:33:36.886Z,978.5
2018-07-25T00:34:38.137Z,978.5
2018-07-25T00:35:39.374Z,978.5
2018-07-25T00:36:40.594Z,978.5
2018-07-25T00:37:41.927Z,978.6
2018-07-25T00:38:43.119Z,978.6
2018-07-25T00:39:44.341Z,978.5
2018-07-25T00:40:45.498Z,978.6
2018-07-25T00:41:46.678Z,978.5
2018-07-25T00:42:47.840Z,978.5
2018-07-25T00:43:49.055Z,978.5
2018-07-25T00:44:50.351Z,978.5
2018-07-25T00:45:51.527Z,978.5
2018-07-25T00:46:53.452Z,978.6
2018-07-25T00:47:54.687Z,978.5
2018-07-25T00:48:55.869Z,978.5
2018-07-25T00:49:58.419Z,978.5
2018-07-25T00:51:02.044Z,978.5
2018-07-25T00:52:03.229Z,978.4
2018-07-25T00:53:04.674Z,978.5
2018-07-25T00:54:05.871Z,978.5
2018-07-25T00:55:08.421Z,978.4
2018-07-25T00:56:14.563Z,978.5
2018-07-25T00:57:15.761Z,978.5
2018-07-25T00:58:18.005Z,978.5
2018-07-25T00:59:20.471Z,978.5
2018-07-25T01:00:21.652Z,978.5
2018-07-25T01:01:23.836Z,978.5
2018-07-25T01:02:25.142Z,978.4
2018-07-25T01:03:27.698Z,978.5
2018-07-25T01:04:28.931Z,978.5
2018-07-25T01:05:31.150Z,978.5
2018-07-25T01:06:32.342Z,978.5
2018-07-25T01:07:33.542Z,978.5
2018-07-25T01:08:34.744Z,978.5
2018-07-25T01:09:37.145Z,978.5
2018-07-25T01:10:38.395Z,978.5
2018-07-25T01:11:39.618Z,978.5
2018-07-25T01:12:40.774Z,978.5
2018-07-25T01:13:41.937Z,978.5
2018-07-25T01:14:43.110Z,978.5
2018-07-25T01:15:44.348Z,978.3
2018-07-25T01:16:45.847Z,978.5
2018-07-25T01:17:47.082Z,978.5
2018-07-25T01:18:48.281Z,978.5
2018-07-25T01:19:49.460Z,978.5
2018-07-25T01:20:50.671Z,978.5
2018-07-25T01:21:52.147Z,978.5
2018-07-25T01:22:53.341Z,978.5
2018-07-25T01:23:54.533Z,978.5
2018-07-25T01:24:58.134Z,978.6
2018-07-25T01:25:59.617Z,978.5
2018-07-25T01:27:00.803Z,978.5
2018-07-25T01:28:02.132Z,978.5
2018-07-25T01:29:03.285Z,978.6
2018-07-25T01:30:04.466Z,978.6
2018-07-25T01:31:05.687Z,978.5
2018-07-25T01:32:06.889Z,978.5
2018-07-25T01:33:08.079Z,978.6
2018-07-25T01:34:09.327Z,978.6
2018-07-25T01:35:10.500Z,978.6
2018-07-25T01:36:11.759Z,978.6
2018-07-25T01:37:12.925Z,978.6
2018-07-25T01:38:14.097Z,978.6
2018-07-25T01:39:15.242Z,978.6
2018-07-25T01:40:16.390Z,978.6
2018-07-25T01:41:17.718Z,978.6
2018-07-25T01:42:18.872Z,978.6
2018-07-25T01:43:20.035Z,978.6
2018-07-25T01:44:21.199Z,978.6
2018-07-25T01:45:22.367Z,978.6
2018-07-25T01:46:23.613Z,978.6
2018-07-25T01:47:24.780Z,978.5
2018-07-25T01:48:26.026Z,978.6
2018-07-25T01:49:27.294Z,978.6
2018-07-25T01:50:28.406Z,978.6
2018-07-25T01:51:29.603Z,978.6
2018-07-25T01:52:30.785Z,978.6
2018-07-25T01:53:31.954Z,978.6
2018-07-25T01:54:33.123Z,978.6
2018-07-25T01:55:34.273Z,978.6
2018-07-25T01:56:36.301Z,978.6
2018-07-25T01:57:37.482Z,978.6
2018-07-25T01:58:38.664Z,978.6
2018-07-25T01:59:39.821Z,978.6
2018-07-25T02:00:40.976Z,978.6
2018-07-25T02:01:42.150Z,978.6
2018-07-25T02:02:43.305Z,978.6
2018-07-25T02:03:44.708Z,978.6
2018-07-25T02:04:45.875Z,978.6
2018-07-25T02:05:47.042Z,978.6
2018-07-25T02:06:48.246Z,978.6
2018-07-25T02:07:49.417Z,978.6
2018-07-25T02:08:50.578Z,978.6
2018-07-25T02:09:51.754Z,978.6
2018-07-25T02:10:52.983Z,978.6
2018-07-25T02:11:55.010Z,978.6
2018-07-25T02:12:56.228Z,978.6
2018-07-25T02:13:57.441Z,978.6
2018-07-25T02:14:58.610Z,978.6
2018-07-25T02:15:59.757Z,978.6
2018-07-25T02:17:00.970Z,978.6
2018-07-25T02:18:02.753Z,978.6
2018-07-25T02:19:04.565Z,978.6
2018-07-25T02:20:05.750Z,978.6
2018-07-25T02:21:07.017Z,978.6
2018-07-25T02:22:11.574Z,978.7
2018-07-25T02:23:12.884Z,978.6
2018-07-25T02:24:14.041Z,978.6
2018-07-25T02:25:15.229Z,978.6
2018-07-25T02:26:16.381Z,978.7
2018-07-25T02:27:18.616Z,978.7
2018-07-25T02:28:19.818Z,978.7
2018-07-25T02:29:21.000Z,978.7
2018-07-25T02:30:22.172Z,978.7
2018-07-25T02:31:23.321Z,978.6
2018-07-25T02:32:24.537Z,978.7
2018-07-25T02:33:25.724Z,978.8
2018-07-25T02:34:26.938Z,978.7
2018-07-25T02:35:28.522Z,978.7
2018-07-25T02:36:29.670Z,978.8
2018-07-25T02:37:30.850Z,978.7
2018-07-25T02:38:32.052Z,978.8
2018-07-25T02:39:33.260Z,978.7
2018-07-25T02:40:34.409Z,978.8
2018-07-25T02:41:35.553Z,978.8
2018-07-25T02:42:36.878Z,978.8
2018-07-25T02:43:37.980Z,978.8
2018-07-25T02:44:39.145Z,978.8
2018-07-25T02:45:40.529Z,978.8
2018-07-25T02:46:41.704Z,978.9
2018-07-25T02:47:42.900Z,978.8
2018-07-25T02:48:45.059Z,978.9
2018-07-25T02:49:46.279Z,978.9
2018-07-25T02:50:47.476Z,978.8
2018-07-25T02:51:50.008Z,978.8
2018-07-25T02:52:51.363Z,978.8
2018-07-25T02:53:52.530Z,978.8
2018-07-25T02:54:53.735Z,978.8
2018-07-25T02:55:54.920Z,978.8
2018-07-25T02:56:56.170Z,978.8
2018-07-25T02:57:57.339Z,978.8
2018-07-25T02:58:58.506Z,978.8
2018-07-25T02:59:59.660Z,978.8
2018-07-25T03:01:00.907Z,978.6
2018-07-25T03:02:02.131Z,978.8
2018-07-25T03:03:03.338Z,978.9
2018-07-25T03:04:04.563Z,978.8
2018-07-25T03:05:07.962Z,978.8
2018-07-25T03:06:09.136Z,978.8
2018-07-25T03:07:10.322Z,978.9
2018-07-25T03:08:11.509Z,978.9
2018-07-25T03:09:12.735Z,978.9
2018-07-25T03:10:13.854Z,978.9
2018-07-25T03:11:15.046Z,978.9
2018-07-25T03:12:16.242Z,978.9
2018-07-25T03:13:17.475Z,978.9
2018-07-25T03:14:18.636Z,979
2018-07-25T03:15:19.866Z,979
2018-07-25T03:16:21.086Z,979
2018-07-25T03:17:22.223Z,978.9
2018-07-25T03:18:23.398Z,979
2018-07-25T03:19:24.563Z,979
2018-07-25T03:20:25.727Z,978.9
2018-07-25T03:21:26.881Z,978.7
2018-07-25T03:22:28.107Z,979
2018-07-25T03:23:29.358Z,978.9
2018-07-25T03:24:30.503Z,979
2018-07-25T03:25:31.698Z,979
2018-07-25T03:26:32.839Z,979
2018-07-25T03:27:34.006Z,979
2018-07-25T03:28:35.470Z,979
2018-07-25T03:29:36.650Z,979
2018-07-25T03:30:37.854Z,979
2018-07-25T03:31:39.176Z,978.9
2018-07-25T03:32:40.247Z,979
2018-07-25T03:33:41.463Z,979
2018-07-25T03:34:42.644Z,979
2018-07-25T03:35:44.236Z,979
2018-07-25T03:36:45.398Z,979
2018-07-25T03:37:46.559Z,979.1
2018-07-25T03:38:47.824Z,979
2018-07-25T03:39:49.004Z,979
2018-07-25T03:40:50.170Z,979.1
2018-07-25T03:41:51.339Z,979.1
2018-07-25T03:42:52.565Z,979.1
2018-07-25T03:43:53.829Z,979.1
2018-07-25T03:44:55.019Z,979.1
2018-07-25T03:45:56.210Z,979.1
2018-07-25T03:46:57.404Z,979.1
2018-07-25T03:47:58.603Z,979.1
2018-07-25T03:48:59.792Z,979.1
2018-07-25T03:50:00.979Z,979.2
2018-07-25T03:51:02.179Z,979.2
2018-07-25T03:52:03.349Z,979.2
2018-07-25T03:53:04.514Z,979.2
2018-07-25T03:54:05.741Z,979.2
2018-07-25T03:55:06.938Z,979.2
2018-07-25T03:56:08.166Z,979
2018-07-25T03:57:09.353Z,979.2
2018-07-25T03:58:10.750Z,979.2
2018-07-25T03:59:11.956Z,979.2
2018-07-25T04:00:13.129Z,979.2
2018-07-25T04:01:14.282Z,979.2
2018-07-25T04:02:15.526Z,979.3
2018-07-25T04:03:16.702Z,979.3
2018-07-25T04:04:17.969Z,979.3
2018-07-25T04:05:19.430Z,979.3
2018-07-25T04:06:20.939Z,979.3
2018-07-25T04:07:22.121Z,979.3
2018-07-25T04:08:23.322Z,979.3
2018-07-25T04:09:24.482Z,979.3
2018-07-25T04:10:25.665Z,979.3
2018-07-25T04:11:26.814Z,979.4
2018-07-25T04:12:28.007Z,979.3
2018-07-25T04:13:29.159Z,979.4
2018-07-25T04:14:30.389Z,979.4
2018-07-25T04:15:31.550Z,979.4
2018-07-25T04:16:32.703Z,979.4
2018-07-25T04:17:33.867Z,979.4
2018-07-25T04:18:35.053Z,979.4
2018-07-25T04:19:36.253Z,979.4
2018-07-25T04:20:37.421Z,979.4
2018-07-25T04:21:39.477Z,979.5
2018-07-25T04:22:40.667Z,979.5
2018-07-25T04:23:41.825Z,979.5
2018-07-25T04:24:43.152Z,979.4
2018-07-25T04:25:44.274Z,979.5
2018-07-25T04:26:45.431Z,979.5
2018-07-25T04:27:46.917Z,979.5
2018-07-25T04:28:48.142Z,979.6
2018-07-25T04:29:49.410Z,979.5
2018-07-25T04:30:50.606Z,979.6
2018-07-25T04:31:51.866Z,979.6
2018-07-25T04:32:53.055Z,979.5
2018-07-25T04:33:54.226Z,979.7
2018-07-25T04:34:55.433Z,979.6
2018-07-25T04:35:56.608Z,979.7
2018-07-25T04:36:57.838Z,979.7
2018-07-25T04:37:59.001Z,979.8
2018-07-25T04:39:00.188Z,979.8
2018-07-25T04:40:01.463Z,979.8
2018-07-25T04:41:02.639Z,979.9
2018-07-25T04:42:03.802Z,979.9
2018-07-25T04:43:05.085Z,979.9
2018-07-25T04:44:06.269Z,979.9
2018-07-25T04:45:07.553Z,979.9
2018-07-25T04:46:08.825Z,980
2018-07-25T04:47:09.986Z,980
2018-07-25T04:48:11.173Z,980.1
2018-07-25T04:49:12.386Z,980.2
2018-07-25T04:50:13.606Z,980.2
2018-07-25T04:51:14.766Z,980.3
2018-07-25T04:52:15.917Z,980.3
2018-07-25T04:53:17.112Z,980.4
2018-07-25T04:54:18.309Z,980.4
2018-07-25T04:55:19.554Z,980.5
2018-07-25T04:56:20.715Z,980.5
2018-07-25T04:57:21.974Z,980.6
2018-07-25T04:58:23.259Z,980.6
2018-07-25T04:59:24.432Z,980.7
2018-07-25T05:00:25.934Z,980.7
2018-07-25T05:01:29.441Z,980.7
2018-07-25T05:02:30.592Z,980.8
2018-07-25T05:03:31.757Z,980.8
2018-07-25T05:04:32.953Z,980.8
2018-07-25T05:05:34.192Z,980.9
2018-07-25T05:06:35.386Z,980.9
2018-07-25T05:07:39.646Z,980.7
2018-07-25T05:08:40.832Z,980.9
2018-07-25T05:09:41.990Z,980.9
2018-07-25T05:10:45.885Z,980.9
2018-07-25T05:11:47.096Z,980.9
2018-07-25T05:12:48.323Z,980.9
2018-07-25T05:13:49.512Z,980.9
2018-07-25T05:14:52.898Z,981
2018-07-25T05:15:54.209Z,981
2018-07-25T05:16:55.566Z,981
2018-07-25T05:17:56.847Z,981
2018-07-25T05:18:58.029Z,981.1
2018-07-25T05:19:59.223Z,981.1
2018-07-25T05:21:00.430Z,981.2
2018-07-25T05:22:01.650Z,981.2
2018-07-25T05:23:02.850Z,981.3
2018-07-25T05:24:04.091Z,981.3
2018-07-25T05:25:05.334Z,981.3
2018-07-25T05:26:06.546Z,981.3
2018-07-25T05:27:07.785Z,981.3
2018-07-25T05:28:09.866Z,981.4
2018-07-25T05:29:11.123Z,981.5
2018-07-25T05:30:12.371Z,981.5
2018-07-25T05:31:13.970Z,981.5
2018-07-25T05:32:15.230Z,981.6
2018-07-25T05:33:16.432Z,981.6
2018-07-25T05:34:17.591Z,981.7
2018-07-25T05:35:19.121Z,981.7
2018-07-25T05:36:20.338Z,981.7
2018-07-25T05:37:21.494Z,981.7
2018-07-25T05:38:22.672Z,981.7
2018-07-25T05:39:23.846Z,981.8
2018-07-25T05:40:25.045Z,981.8
2018-07-25T05:41:26.289Z,981.8
2018-07-25T05:42:27.450Z,981.9
2018-07-25T05:43:28.706Z,981.9
2018-07-25T05:44:29.868Z,981.9
2018-07-25T05:45:33.870Z,982
2018-07-25T05:46:35.098Z,982
2018-07-25T05:47:36.341Z,982
2018-07-25T05:48:37.498Z,982
2018-07-25T05:49:38.821Z,982.1
2018-07-25T05:50:40.021Z,982.1
2018-07-25T05:51:41.709Z,982.1
2018-07-25T05:52:42.936Z,982.2
2018-07-25T05:53:47.302Z,982.2
2018-07-25T05:54:48.573Z,982.2
2018-07-25T05:55:51.937Z,982.2
2018-07-25T05:56:53.157Z,982.3
2018-07-25T05:57:54.378Z,982.3
2018-07-25T05:58:55.590Z,982.3
2018-07-25T05:59:56.809Z,982.3
2018-07-25T06:00:58.053Z,982.3
2018-07-25T06:01:59.576Z,982.4
2018-07-25T06:03:00.900Z,982.4
2018-07-25T06:04:02.067Z,982.5
2018-07-25T06:05:03.262Z,982.5
2018-07-25T06:06:04.517Z,982.5
2018-07-25T06:07:10.657Z,982.5
2018-07-25T06:08:11.850Z,982.6
2018-07-25T06:09:13.122Z,982.6
2018-07-25T06:10:14.303Z,982.6
2018-07-25T06:11:15.505Z,982.6
2018-07-25T06:13:29.885Z,982.8
2018-07-25T06:14:31.063Z,982.8
2018-07-25T06:15:32.279Z,982.8
2018-07-25T06:16:33.474Z,982.8
2018-07-25T06:17:35.756Z,982.9
2018-07-25T06:18:36.925Z,982.9
2018-07-25T06:19:38.156Z,982.9
2018-07-25T06:20:39.401Z,982.6
2018-07-25T06:21:40.586Z,982.8
2018-07-25T06:22:41.911Z,982.7
2018-07-25T06:23:43.107Z,982.8
2018-07-25T06:24:44.275Z,982.9
2018-07-25T06:25:45.449Z,982.9
2018-07-25T06:26:46.656Z,982.8
2018-07-25T06:27:47.898Z,982.8
2018-07-25T06:28:49.279Z,982.6
2018-07-25T06:30:01.696Z,982.9
2018-07-25T06:31:02.912Z,982.9
2018-07-25T06:32:04.125Z,982.9
2018-07-25T06:33:05.626Z,982.9
2018-07-25T06:34:06.842Z,983.1
2018-07-25T06:35:08.062Z,983
2018-07-25T06:36:09.247Z,983.1
2018-07-25T06:37:13.564Z,983.1
2018-07-25T06:38:14.757Z,983.1
2018-07-25T06:39:15.960Z,982.9
2018-07-25T06:40:17.139Z,983.1
2018-07-25T06:41:18.627Z,983.3
2018-07-25T06:42:19.805Z,983.3
2018-07-25T06:43:24.050Z,983.3
2018-07-25T06:44:27.667Z,983.3
2018-07-25T06:45:31.192Z,983.1
2018-07-25T06:46:37.339Z,983.3
2018-07-25T06:47:38.743Z,983.5
2018-07-25T06:48:50.049Z,983.5
2018-07-25T06:49:52.101Z,983.5
2018-07-25T06:50:53.696Z,983.6
2018-07-25T06:51:54.950Z,983.5
2018-07-25T06:53:03.382Z,983.5
2018-07-25T06:54:04.617Z,983.6
2018-07-25T06:55:05.826Z,983.6
2018-07-25T06:56:07.254Z,983.6
2018-07-25T06:57:08.584Z,983.7
2018-07-25T06:58:09.806Z,983.8
2018-07-25T06:59:11.069Z,983.7
2018-07-25T07:00:12.270Z,983.8
2018-07-25T07:01:13.758Z,983.7
2018-07-25T07:02:15.295Z,983.8
2018-07-25T07:03:16.997Z,983.8
2018-07-25T07:04:18.485Z,983.8
2018-07-25T07:05:20.132Z,983.7
2018-07-25T07:06:21.625Z,983.8
2018-07-25T07:07:22.897Z,983.7
2018-07-25T07:08:24.209Z,983.7
2018-07-25T07:09:25.907Z,983.7
2018-07-25T07:10:29.324Z,983.6
2018-07-25T07:11:31.885Z,983.5
2018-07-25T07:12:33.257Z,983.7
2018-07-25T07:13:34.839Z,983.8
2018-07-25T07:14:36.060Z,983.8
2018-07-25T07:15:38.477Z,983.9
2018-07-25T07:16:42.623Z,983.9
2018-07-25T07:17:43.842Z,983.9
2018-07-25T07:18:45.042Z,984
2018-07-25T07:19:46.326Z,984
2018-07-25T07:20:50.261Z,984
2018-07-25T07:21:51.466Z,984.1
2018-07-25T07:22:55.153Z,984.1
2018-07-25T07:23:56.407Z,984.1
2018-07-25T07:24:57.617Z,984.1
2018-07-25T07:26:00.921Z,984.1
2018-07-25T07:27:05.064Z,984
2018-07-25T07:28:08.652Z,984.1
2018-07-25T07:29:10.196Z,984
2018-07-25T07:30:11.460Z,983.9
2018-07-25T07:31:12.680Z,984.1
2018-07-25T07:32:13.897Z,983.9
2018-07-25T07:33:17.279Z,984.1
2018-07-25T07:34:18.517Z,984
2018-07-25T07:35:19.903Z,983.9
2018-07-25T07:36:21.223Z,984
2018-07-25T07:37:25.553Z,983.7
2018-07-25T07:38:26.751Z,983.7
2018-07-25T07:39:28.258Z,983.8
2018-07-25T07:40:29.710Z,984
2018-07-25T07:41:30.882Z,984
2018-07-25T07:42:35.107Z,984.1
2018-07-25T07:43:36.544Z,983.9
2018-07-25T07:44:37.714Z,984
2018-07-25T07:45:39.042Z,984.1
2018-07-25T07:46:40.422Z,984.1
2018-07-25T07:47:41.708Z,984.1
2018-07-25T07:48:42.870Z,984.1
2018-07-25T07:49:44.242Z,984.1
2018-07-25T07:50:45.499Z,984
2018-07-25T07:51:51.781Z,984
2018-07-25T07:52:53.263Z,984
2018-07-25T07:53:54.738Z,984
2018-07-25T07:54:56.754Z,983.9
2018-07-25T07:55:58.263Z,983.9
2018-07-25T07:57:02.287Z,983.9
2018-07-25T07:58:03.530Z,984.1
2018-07-25T07:59:04.754Z,984
2018-07-25T08:00:09.617Z,984.2
2018-07-25T08:01:13.942Z,984.2
2018-07-25T08:02:15.477Z,984.3
2018-07-25T08:03:16.712Z,984.1
2018-07-25T08:04:17.927Z,984
2018-07-25T08:05:19.210Z,984
2018-07-25T08:06:20.658Z,984.1
2018-07-25T08:07:24.374Z,984.2
2018-07-25T08:08:25.606Z,984.4
2018-07-25T08:09:26.857Z,984.2
2018-07-25T08:10:28.063Z,984.3
2018-07-25T08:11:29.327Z,984.1
2018-07-25T08:12:30.637Z,984.2
2018-07-25T08:13:40.126Z,984.3
2018-07-25T08:14:41.499Z,984.2
2018-07-25T08:15:42.727Z,984.3
2018-07-25T08:16:44.223Z,984.2
2018-07-25T08:17:45.493Z,984.4
2018-07-25T08:18:46.646Z,984.1
2018-07-25T08:19:47.890Z,984.2
2018-07-25T08:20:49.204Z,984.3
2018-07-25T08:21:50.458Z,984.4
2018-07-25T08:22:51.681Z,984.5
2018-07-25T08:23:52.849Z,984.5
2018-07-25T08:24:56.498Z,984.4
2018-07-25T08:25:57.811Z,984.4
2018-07-25T08:26:59.006Z,984.4
2018-07-25T08:28:00.280Z,984.4
2018-07-25T08:29:01.768Z,984.5
2018-07-25T08:30:02.956Z,984.2
2018-07-25T08:31:06.564Z,984.4
2018-07-25T08:32:07.888Z,984.4
2018-07-25T08:33:09.309Z,984.6
2018-07-25T08:34:10.518Z,984.4
2018-07-25T08:35:11.717Z,984.4
2018-07-25T08:36:14.832Z,984.4
2018-07-25T08:37:16.246Z,984.4
2018-07-25T08:38:17.571Z,984.4
2018-07-25T08:39:18.777Z,984.4
2018-07-25T08:40:20.514Z,984.3
2018-07-25T08:41:21.803Z,984.5
2018-07-25T08:42:22.999Z,984.2
2018-07-25T08:43:26.341Z,984.3
2018-07-25T08:44:31.910Z,984.3
2018-07-25T08:45:33.113Z,984.6
2018-07-25T08:46:34.297Z,984.5
2018-07-25T08:47:35.534Z,984.4
2018-07-25T08:48:36.736Z,984.3
2018-07-25T08:49:38.026Z,984.2
2018-07-25T08:50:39.270Z,984.1
2018-07-25T08:51:40.725Z,983.9
2018-07-25T08:52:41.973Z,983.9
2018-07-25T08:53:43.133Z,984
2018-07-25T08:54:44.344Z,983.9
2018-07-25T08:55:45.595Z,983.9
2018-07-25T08:56:46.766Z,983.8
2018-07-25T08:57:48.094Z,983.9
2018-07-25T08:58:49.317Z,984
2018-07-25T08:59:50.635Z,983.9
2018-07-25T09:00:54.432Z,983.9
2018-07-25T09:01:57.997Z,983.8
2018-07-25T09:02:59.247Z,983.9
2018-07-25T09:04:01.939Z,983.9
2018-07-25T09:05:03.154Z,984
2018-07-25T09:06:04.386Z,983.9
2018-07-25T09:07:05.617Z,984.1
2018-07-25T09:08:07.710Z,984.1
2018-07-25T09:09:09.045Z,984.2
2018-07-25T09:10:10.230Z,984.1
2018-07-25T09:11:12.325Z,984.1
2018-07-25T09:12:13.583Z,984.2
2018-07-25T09:13:14.897Z,984.2
2018-07-25T09:14:16.142Z,984.2
2018-07-25T09:15:17.425Z,984.2
2018-07-25T09:16:18.593Z,984.3
2018-07-25T09:17:19.897Z,984.1
2018-07-25T09:18:21.588Z,984
2018-07-25T09:19:23.312Z,984
2018-07-25T09:20:24.495Z,983.9
2018-07-25T09:21:26.057Z,983.9
2018-07-25T09:22:27.404Z,983.8
2018-07-25T09:23:28.632Z,983.8
2018-07-25T09:24:33.042Z,983.9
2018-07-25T09:25:36.700Z,983.8
2018-07-25T09:26:42.603Z,983.8
2018-07-25T09:27:43.973Z,983.6
2018-07-25T09:28:45.319Z,983.8
2018-07-25T09:29:48.487Z,983.8
2018-07-25T09:30:49.721Z,984.6
2018-07-25T09:32:08.060Z,984.1
2018-07-25T09:33:12.125Z,983.7
2018-07-25T09:34:13.509Z,983.6
2018-07-25T09:35:23.216Z,983.6
2018-07-25T09:36:25.939Z,983.6
2018-07-25T09:37:27.177Z,983.8
2018-07-25T09:38:28.374Z,983.7
2018-07-25T09:39:31.774Z,983.7
2018-07-25T09:40:56.321Z,983.6
2018-07-25T09:41:58.877Z,983.7
2018-07-25T09:43:02.839Z,983.5
2018-07-25T09:44:04.503Z,983.6
2018-07-25T09:45:05.843Z,983.4
2018-07-25T09:46:09.507Z,983.4
2018-07-25T09:47:10.999Z,983.3
2018-07-25T09:48:17.390Z,983.4
2018-07-25T09:49:18.628Z,983.4
2018-07-25T09:50:20.208Z,983.4
2018-07-25T09:51:23.539Z,983.4
2018-07-25T09:52:32.274Z,983.4
2018-07-25T09:53:33.683Z,983.4
2018-07-25T09:54:37.389Z,983.4
2018-07-25T09:55:38.658Z,983.3
2018-07-25T09:56:40.703Z,983.2
2018-07-25T09:57:41.974Z,983.1
2018-07-25T09:58:43.186Z,983.1
2018-07-25T09:59:44.402Z,983
2018-07-25T10:00:52.435Z,983.5
2018-07-25T10:01:55.446Z,983.3
2018-07-25T10:02:56.714Z,983.2
2018-07-25T10:03:58.192Z,983.2
2018-07-25T10:05:02.367Z,983.1
2018-07-25T10:06:03.850Z,983.1
2018-07-25T10:07:07.985Z,983.1
2018-07-25T10:08:09.266Z,982.9
2018-07-25T10:09:10.752Z,983.1
2018-07-25T10:10:15.410Z,983.1
2018-07-25T10:11:16.895Z,983
2018-07-25T10:12:19.294Z,983
2018-07-25T10:13:21.215Z,983.1
2018-07-25T10:14:22.676Z,983.1
2018-07-25T10:15:23.903Z,983.3
2018-07-25T10:16:28.409Z,983.4
2018-07-25T10:17:29.681Z,983.7
2018-07-25T10:18:33.772Z,983.5
2018-07-25T10:19:35.155Z,983.4
2018-07-25T10:20:36.399Z,983.2
2018-07-25T10:21:37.765Z,983
2018-07-25T10:22:40.332Z,983.2
2018-07-25T10:23:41.628Z,983.3
2018-07-25T10:24:43.520Z,983.2
2018-07-25T10:25:47.081Z,983.1
2018-07-25T10:26:53.275Z,982.7
2018-07-25T10:27:54.756Z,982.7
2018-07-25T10:28:57.280Z,982.8
2018-07-25T10:29:58.503Z,982.8
2018-07-25T10:31:00.883Z,982.7
2018-07-25T10:32:07.241Z,982.7
2018-07-25T10:33:08.602Z,982.8
2018-07-25T10:34:14.094Z,982.7
2018-07-25T10:35:15.395Z,982.7
2018-07-25T10:36:18.055Z,982.7
2018-07-25T10:37:25.152Z,982.7
2018-07-25T10:38:29.053Z,982.8
2018-07-25T10:39:30.356Z,982.9
2018-07-25T10:40:32.734Z,982.8
2018-07-25T10:41:34.668Z,982.9
2018-07-25T10:42:39.567Z,982.9
2018-07-25T10:43:43.301Z,982.8
2018-07-25T10:44:46.024Z,983
2018-07-25T10:45:49.615Z,983
2018-07-25T10:46:50.907Z,982.9
2018-07-25T10:47:55.204Z,983
2018-07-25T10:48:59.426Z,982.9
2018-07-25T10:50:06.265Z,982.7
2018-07-25T10:51:08.775Z,982.7
2018-07-25T10:52:13.376Z,982.7
2018-07-25T10:53:14.690Z,982.7
2018-07-25T10:54:16.119Z,982.6
2018-07-25T10:55:17.405Z,982.6
2018-07-25T10:56:18.696Z,982.6
2018-07-25T10:57:22.783Z,982.3
2018-07-25T10:58:33.216Z,982.4
2018-07-25T10:59:34.414Z,982.6
2018-07-25T11:00:38.398Z,982.5
2018-07-25T11:01:39.593Z,982.6
2018-07-25T11:02:46.403Z,982.6
2018-07-25T11:03:56.378Z,982.5
2018-07-25T11:04:59.254Z,982.6
2018-07-25T11:06:01.835Z,982.7
2018-07-25T11:07:08.325Z,982.8
2018-07-25T11:08:12.815Z,982.8
2018-07-25T11:09:17.110Z,983
2018-07-25T11:10:18.305Z,982.7
2018-07-25T11:11:21.451Z,982.7
2018-07-25T11:12:27.674Z,982.5
2018-07-25T11:13:28.943Z,982.4
2018-07-25T11:14:33.916Z,982.3
2018-07-25T11:15:40.730Z,982.5
2018-07-25T11:16:42.179Z,982.6
2018-07-25T11:17:46.659Z,982.4
2018-07-25T11:18:50.446Z,982.7
2018-07-25T11:19:56.726Z,982.6
2018-07-25T11:21:00.413Z,982.6
2018-07-25T11:22:01.731Z,982.7
2018-07-25T11:23:03.077Z,982.6
2018-07-25T11:24:04.256Z,982.4
2018-07-25T11:25:09.721Z,982.5
2018-07-25T11:26:13.343Z,982.4
2018-07-25T11:27:17.382Z,982.4
2018-07-25T11:28:20.347Z,982.4
2018-07-25T11:29:25.006Z,982.3
2018-07-25T11:30:26.495Z,982.3
2018-07-25T11:31:27.911Z,982.3
2018-07-25T11:32:32.253Z,982.2
2018-07-25T11:33:33.442Z,982.4
2018-07-25T11:34:34.617Z,982.4
2018-07-25T11:35:35.835Z,982.3
2018-07-25T11:36:37.662Z,982.3
2018-07-25T11:37:52.279Z,982.3
2018-07-25T11:38:53.617Z,982.3
2018-07-25T11:40:02.227Z,982.3
2018-07-25T11:41:03.454Z,982.2
2018-07-25T11:42:04.699Z,982.2
2018-07-25T11:43:06.179Z,982.3
2018-07-25T11:44:07.384Z,982.3
2018-07-25T11:45:08.567Z,982.4
2018-07-25T11:46:09.871Z,982.3
2018-07-25T11:47:16.651Z,982.2
2018-07-25T11:48:17.896Z,982.2
2018-07-25T11:49:22.431Z,982.3
2018-07-25T11:50:25.943Z,982.2
2018-07-25T11:51:27.466Z,982.1
2018-07-25T11:52:28.875Z,982.1
2018-07-25T11:53:30.060Z,982.1
2018-07-25T11:54:31.817Z,982.1
2018-07-25T11:55:33.091Z,982.1
2018-07-25T11:56:34.413Z,982.2
2018-07-25T11:57:40.461Z,982.2
2018-07-25T11:58:41.855Z,982.3
2018-07-25T11:59:43.486Z,982.2
2018-07-25T12:00:44.860Z,982.1
2018-07-25T12:01:46.454Z,982.2
2018-07-25T12:02:47.910Z,982.1
2018-07-25T12:03:49.286Z,982.2
2018-07-25T12:04:50.589Z,982.2
2018-07-25T12:05:53.248Z,982.1
2018-07-25T12:07:59.488Z,982.2
2018-07-25T12:09:00.763Z,982.2
2018-07-25T12:10:03.794Z,982.1
2018-07-25T12:11:08.027Z,982.2
2018-07-25T12:12:09.411Z,982.2
2018-07-25T12:13:10.659Z,982.2
2018-07-25T12:14:12.053Z,982.3
2018-07-25T12:15:19.770Z,982.2
2018-07-25T12:16:22.355Z,982.1
2018-07-25T12:17:23.839Z,982.1
2018-07-25T12:18:25.086Z,982.1
2018-07-25T12:19:26.352Z,982.2
2018-07-25T12:20:29.050Z,982.1
2018-07-25T12:21:32.697Z,982
2018-07-25T12:22:34.741Z,982.1
2018-07-25T12:23:35.978Z,982.1
2018-07-25T12:24:45.531Z,982
2018-07-25T12:25:49.224Z,982.1
2018-07-25T12:26:50.749Z,982
2018-07-25T12:27:55.242Z,982.1
2018-07-25T12:28:56.672Z,982.2
2018-07-25T12:29:57.962Z,982.2
2018-07-25T12:30:59.271Z,982.3
2018-07-25T12:32:01.997Z,982.1
2018-07-25T12:33:04.492Z,982.1
2018-07-25T12:34:05.894Z,982
2018-07-25T12:35:07.283Z,982.1
2018-07-25T12:36:09.572Z,982.2
2018-07-25T12:37:13.378Z,982.1
2018-07-25T12:38:14.831Z,982
2018-07-25T12:39:18.283Z,982.2
2018-07-25T12:40:19.791Z,982.1
2018-07-25T12:41:24.382Z,982
2018-07-25T12:42:27.426Z,982
2018-07-25T12:43:28.814Z,982.1
2018-07-25T12:44:30.021Z,982.2
2018-07-25T12:45:31.322Z,982.2
2018-07-25T12:46:32.729Z,981.9
2018-07-25T12:47:34.757Z,982
2018-07-25T12:48:36.127Z,981.9
2018-07-25T12:49:37.425Z,981.9
2018-07-25T12:50:38.645Z,981.8
2018-07-25T12:51:39.884Z,981.8
2018-07-25T12:52:41.212Z,981.7
2018-07-25T12:53:42.491Z,981.7
2018-07-25T12:54:43.701Z,981.9
2018-07-25T12:55:44.951Z,981.9
2018-07-25T12:56:49.190Z,981.8
2018-07-25T12:57:50.678Z,981.8
2018-07-25T12:58:51.976Z,981.9
2018-07-25T12:59:53.174Z,981.8
2018-07-25T13:00:57.016Z,981.8
2018-07-25T13:01:58.364Z,981.9
2018-07-25T13:03:03.763Z,981.9
2018-07-25T13:04:05.049Z,982
2018-07-25T13:05:08.436Z,981.8
2018-07-25T13:06:11.856Z,981.7
2018-07-25T13:07:13.370Z,981.7
2018-07-25T13:08:14.594Z,981.7
2018-07-25T13:09:15.903Z,981.8
2018-07-25T13:10:19.110Z,981.8
2018-07-25T13:11:21.083Z,981.7
2018-07-25T13:12:22.331Z,981.7
2018-07-25T13:13:23.562Z,981.6
2018-07-25T13:14:24.810Z,981.7
2018-07-25T13:15:26.284Z,981.6
2018-07-25T13:16:27.541Z,981.7
2018-07-25T13:17:31.334Z,981.7
2018-07-25T13:18:32.557Z,981.5
2018-07-25T13:19:34.023Z,981.5
2018-07-25T13:20:37.661Z,981.4
2018-07-25T13:21:39.816Z,981.3
2018-07-25T13:22:41.414Z,981.5
2018-07-25T13:23:42.888Z,981.5
2018-07-25T13:24:46.571Z,981.6
2018-07-25T13:25:47.772Z,981.6